Saturday, September 22, 2018, 3:19 AM EDT
Back to Local

KDXR, Danbury Municipal Airport

Location: Danbury, CT, United States Lat: 41.367
Local Time: 3:19 AM EDT ( 7:19 GMT) Lon: -73.483
Time Zone: US/Eastern Elev: 459 ft

Show me the last for .
Show Coded

Time T Td Feel RH Dir Speed Gust Alt SLP Vis Weather Sky Remarks
2018-09-22 02:53 69 67 - 92 230° 12 - 29.93 29.92 9 OVC012 1-hr Precip Total: Trace
2018-09-22 02:13 70 67 - 90 230° 14 - 29.94 - 8 -RA OVC014 1-hr Precip Total: Trace
2018-09-22 01:53 70 66 - 87 210° 10 - 29.93 29.92 10 OVC015 6-hr Min Temp (2am): 68.0°F
6-hr Max Temp (2am): 71.1°F
2018-09-22 00:53 71 65 76 81 210° 14 - 29.96 29.94 10 OVC019 24-hr Min Temp (1am): 63.0°F
24-hr Max Temp (1am): 71.1°F
2018-09-21 23:53 70 65 - 84 180° 8 - 29.98 29.97 10 OVC022 None
2018-09-21 22:53 70 65 - 84 190° 9 - 30.01 30.00 10 OVC024 None
2018-09-21 21:53 70 65 - 84 190° 12 22 30.01 30.00 10 OVC026 None
2018-09-21 20:53 69 65 - 86 190° 10 - 30.01 29.99 10 FEW018 OVC025 None
2018-09-21 19:53 69 64 - 84 190° 13 20 30.01 30.00 10 FEW016 SCT023 OVC028 6-hr Min Temp (8pm): 66.9°F
6-hr Max Temp (8pm): 69.1°F
2018-09-21 19:21 68 64 - 87 190° 8 - 30.02 - 10 SCT017 SCT023 OVC028 None
2018-09-21 18:53 68 64 - 87 190° 10 - 30.03 30.02 10 OVC031 None
2018-09-21 18:26 68 63 - 83 170° 7 - 30.05 - 10 FEW019 SCT023 OVC030 None
2018-09-21 17:53 68 63 - 83 Variable 7 - 30.07 30.06 10 OVC019 None
2018-09-21 16:53 67 62 - 84 Variable 7 - 30.09 30.09 10 OVC019 None
2018-09-21 15:53 68 61 - 78 190° 10 - 30.12 30.11 10 OVC023 None
2018-09-21 15:25 69 61 - 75 190° 9 - 30.13 - 10 FEW022 OVC029 None
2018-09-21 14:53 69 61 - 75 200° 13 21 30.14 30.13 10 SCT024 SCT028 OVC036 None
2018-09-21 14:23 68 61 - 78 170° 10 18 30.15 - 10 SCT024 OVC034 None
2018-09-21 13:53 68 60 - 75 180° 7 - 30.17 30.16 10 BKN026 OVC032 6-hr Min Temp (2pm): 64.0°F
6-hr Max Temp (2pm): 69.1°F
2018-09-21 13:39 68 60 - 75 170° 10 - 30.18 - 10 SCT024 OVC033 None
2018-09-21 12:53 68 60 - 75 170° 7 - 30.19 30.18 10 OVC026 None
2018-09-21 12:29 67 59 - 75 210° 7 - 30.21 - 10 BKN024 OVC031 None
2018-09-21 11:53 67 60 - 78 190° 7 - 30.22 30.21 10 OVC031 None
2018-09-21 11:41 67 60 - 78 180° 5 - 30.22 - 10 SCT025 OVC030 None
2018-09-21 10:53 66 60 - 81 170° 8 - 30.25 30.24 10 OVC027 None
2018-09-21 10:10 65 60 - 84 190° 5 - 30.26 - 10 OVC030 None
2018-09-21 09:53 65 60 - 84 170° 8 - 30.26 30.25 10 OVC029 None
2018-09-21 09:23 64 60 - 86 170° 6 - 30.26 - 10 SCT019 BKN024 OVC031 None
2018-09-21 08:53 64 60 - 86 170° 6 - 30.27 30.26 10 OVC033 None
2018-09-21 07:53 64 60 - 86 170° 6 - 30.28 30.27 10 OVC031 6-hr Min Temp (8am): 63.0°F
6-hr Max Temp (8am): 64.0°F
2018-09-21 06:53 63 60 - 90 Variable 3 - 30.27 30.27 10 OVC023 None
2018-09-21 06:39 63 60 - 90 170° 5 - 30.27 - 10 BKN024 OVC031 None
2018-09-21 06:10 63 60 - 90 150° 5 - 30.27 - 10 SCT024 OVC033 None
2018-09-21 05:53 63 60 - 90 150° 3 - 30.27 30.27 10 BKN025 OVC031 None
2018-09-21 04:53 63 60 - 90 160° 3 - 30.26 30.25 10 OVC025 None
2018-09-21 03:53 63 61 - 93 150° 3 - 30.26 30.25 10 FEW015 OVC025 None

Support USWX by starting your Amazon purchase here.